createdAt,value
2023-05-24T00:00:35.015Z,74.10
2023-05-24T00:04:37.682Z,74.65
2023-05-24T00:08:40.365Z,74.29
2023-05-24T00:12:43.036Z,75.02
2023-05-24T00:16:47.412Z,74.80
2023-05-24T00:20:51.858Z,74.44
2023-05-24T00:24:54.597Z,74.87
2023-05-24T00:28:57.233Z,75.04
2023-05-24T00:33:01.374Z,75.38
2023-05-24T00:37:04.096Z,75.94
2023-05-24T00:41:06.809Z,75.95
2023-05-24T00:45:10.580Z,76.02
2023-05-24T00:49:14.679Z,76.84
2023-05-24T00:53:17.387Z,77.19
2023-05-24T00:57:20.259Z,77.50
2023-05-24T01:01:25.867Z,78.56
2023-05-24T01:05:29.934Z,79.09
2023-05-24T01:09:44.145Z,79.95
2023-05-24T01:13:55.762Z,79.84
2023-05-24T01:18:05.306Z,79.26
2023-05-24T01:22:23.857Z,79.03
2023-05-24T01:26:32.983Z,79.23
2023-05-24T01:30:37.902Z,78.58
2023-05-24T01:34:40.550Z,78.81
2023-05-24T01:38:43.536Z,77.61
2023-05-24T01:42:50.021Z,77.64
2023-05-24T01:47:06.060Z,77.98
2023-05-24T01:51:11.799Z,77.71
2023-05-24T01:55:18.604Z,77.37
2023-05-24T01:59:22.966Z,77.21
2023-05-24T02:03:27.067Z,76.79
2023-05-24T02:07:29.696Z,76.43
2023-05-24T02:11:32.336Z,76.35
2023-05-24T02:15:35.587Z,76.76
2023-05-24T02:19:39.640Z,76.94
2023-05-24T02:23:42.396Z,76.61
2023-05-24T02:27:47.095Z,76.96
2023-05-24T02:31:52.026Z,76.31
2023-05-24T02:35:56.053Z,76.61
2023-05-24T02:39:58.805Z,76.80
2023-05-24T02:44:01.482Z,76.28
2023-05-24T02:48:04.403Z,76.46
2023-05-24T02:52:08.641Z,76.67
2023-05-24T02:56:11.442Z,76.72
2023-05-24T03:00:15.207Z,76.90
2023-05-24T03:04:17.905Z,76.57
2023-05-24T03:08:21.933Z,76.53
2023-05-24T03:12:24.596Z,76.17
2023-05-24T03:16:27.266Z,75.74
2023-05-24T03:20:29.923Z,74.89
2023-05-24T03:24:34.788Z,74.09
2023-05-24T03:28:37.549Z,74.09
2023-05-24T03:32:40.395Z,73.07
2023-05-24T03:36:43.330Z,73.58
2023-05-24T03:40:47.410Z,78.80
2023-05-24T03:44:50.113Z,76.60
2023-05-24T03:48:52.939Z,82.91
2023-05-24T03:52:55.932Z,78.97
2023-05-24T03:57:00.078Z,79.60
2023-05-24T04:01:03.441Z,75.73
2023-05-24T04:05:10.270Z,71.96
2023-05-24T04:09:12.936Z,71.97
2023-05-24T04:13:17.046Z,72.87
2023-05-24T04:17:19.861Z,73.53
2023-05-24T04:21:22.687Z,73.34
2023-05-24T04:25:26.834Z,73.38
2023-05-24T04:29:34.391Z,74.06
2023-05-24T04:33:37.092Z,73.98
2023-05-24T04:37:40.429Z,73.96
2023-05-24T04:41:43.157Z,73.95
2023-05-24T04:45:47.514Z,73.29
2023-05-24T04:49:50.965Z,74.46
2023-05-24T04:53:53.659Z,73.68
2023-05-24T04:57:57.200Z,73.39
2023-05-24T05:02:01.370Z,74.10
2023-05-24T05:06:04.347Z,73.85
2023-05-24T05:10:08.545Z,72.62
2023-05-24T05:14:11.688Z,72.30
2023-05-24T05:18:16.484Z,73.24
2023-05-24T05:22:19.350Z,73.52
2023-05-24T05:26:22.353Z,73.38
2023-05-24T05:30:24.977Z,73.07
2023-05-24T05:34:29.348Z,72.79
2023-05-24T05:38:31.974Z,73.50
2023-05-24T05:42:34.620Z,71.92
2023-05-24T05:46:37.437Z,71.71
2023-05-24T05:50:42.564Z,70.76
2023-05-24T05:54:46.368Z,71.33
2023-05-24T05:58:49.380Z,70.51
2023-05-24T06:02:52.155Z,71.65
2023-05-24T06:06:56.996Z,71.18
2023-05-24T06:10:59.863Z,72.02
2023-05-24T06:15:02.528Z,71.22
2023-05-24T06:19:06.618Z,70.92
2023-05-24T06:23:10.953Z,72.26
2023-05-24T06:27:13.775Z,70.00
2023-05-24T06:31:16.517Z,70.51
2023-05-24T06:35:19.250Z,70.68
2023-05-24T06:39:25.218Z,69.89
2023-05-24T06:43:28.298Z,70.22
2023-05-24T06:47:31.085Z,69.31
2023-05-24T06:51:34.549Z,70.96
2023-05-24T06:55:38.830Z,70.35
2023-05-24T06:59:41.486Z,70.53
2023-05-24T07:03:44.209Z,69.62
2023-05-24T07:07:47.011Z,71.27
2023-05-24T07:11:51.195Z,70.70
2023-05-24T07:15:53.917Z,69.91
2023-05-24T07:19:56.903Z,69.22
2023-05-24T07:24:00.289Z,70.47
2023-05-24T07:28:05.269Z,69.20
2023-05-24T07:32:08.734Z,68.57
2023-05-24T07:36:12.277Z,66.79
2023-05-24T07:40:15.106Z,67.02
2023-05-24T07:44:19.977Z,66.86
2023-05-24T07:48:22.759Z,65.61
2023-05-24T07:52:26.281Z,66.10
2023-05-24T07:56:29.225Z,63.38
2023-05-24T08:00:33.798Z,64.90
2023-05-24T08:04:36.650Z,62.11
2023-05-24T08:08:40.250Z,62.82
2023-05-24T08:12:43.306Z,63.14
2023-05-24T08:16:47.361Z,61.40
2023-05-24T08:20:50.166Z,62.09
2023-05-24T08:24:53.274Z,62.51
2023-05-24T08:28:56.054Z,61.87
2023-05-24T08:33:00.074Z,60.84
2023-05-24T08:37:03.232Z,63.23
2023-05-24T08:41:08.095Z,61.88
2023-05-24T08:45:13.912Z,63.75
2023-05-24T08:49:19.096Z,62.30
2023-05-24T08:53:24.249Z,61.91
2023-05-24T08:57:28.832Z,61.24
2023-05-24T09:01:33.893Z,61.57
2023-05-24T09:05:39.202Z,62.23
2023-05-24T09:09:45.278Z,62.24
2023-05-24T09:13:49.133Z,61.59
2023-05-24T09:17:51.833Z,59.33
2023-05-24T09:21:57.469Z,59.61
2023-05-24T09:26:07.735Z,60.30
2023-05-24T09:30:12.716Z,59.98
2023-05-24T09:34:16.962Z,59.25
2023-05-24T09:38:21.076Z,57.46
2023-05-24T09:42:26.595Z,60.25
2023-05-24T09:46:29.892Z,59.92
2023-05-24T09:50:33.017Z,59.38
2023-05-24T09:54:37.543Z,59.76
2023-05-24T09:58:43.214Z,58.97
2023-05-24T10:02:53.416Z,59.08
2023-05-24T10:06:56.969Z,59.54
2023-05-24T10:11:03.508Z,61.24
2023-05-24T10:15:08.201Z,61.38
2023-05-24T10:19:11.826Z,61.06
2023-05-24T10:23:20.823Z,59.67
2023-05-24T10:27:28.771Z,59.30
2023-05-24T10:31:34.585Z,58.63
2023-05-24T10:35:38.432Z,59.28
2023-05-24T10:39:42.821Z,58.71
2023-05-24T10:44:00.693Z,57.08
2023-05-24T10:48:38.225Z,56.45
2023-05-24T10:52:41.707Z,57.22
2023-05-24T10:56:48.847Z,56.49
2023-05-24T11:00:53.851Z,56.77
2023-05-24T11:04:56.832Z,54.93
2023-05-24T11:09:01.989Z,57.71
2023-05-24T11:13:04.956Z,54.06
2023-05-24T11:17:09.544Z,55.27
2023-05-24T11:21:12.634Z,56.18
2023-05-24T11:25:15.376Z,55.23
2023-05-24T11:29:20.908Z,54.99
2023-05-24T11:33:25.519Z,52.96
2023-05-24T11:37:45.052Z,53.23
2023-05-24T11:41:48.961Z,53.35
2023-05-24T11:45:53.017Z,51.18
2023-05-24T11:49:57.131Z,51.20
2023-05-24T11:54:00.354Z,52.14
2023-05-24T11:58:06.211Z,51.43
2023-05-24T12:02:09.184Z,53.63
2023-05-24T12:06:13.285Z,51.58
2023-05-24T12:10:16.380Z,50.96
2023-05-24T12:14:20.727Z,53.03
2023-05-24T12:18:24.830Z,51.39
2023-05-24T12:22:31.921Z,51.91
2023-05-24T12:26:35.952Z,50.93
2023-05-24T12:30:43.562Z,51.04
2023-05-24T12:34:46.430Z,50.63
2023-05-24T12:38:50.653Z,50.67
2023-05-24T12:42:55.173Z,50.58
2023-05-24T12:46:59.088Z,49.84
2023-05-24T12:51:02.152Z,47.98
2023-05-24T12:55:07.950Z,48.96
2023-05-24T12:59:10.602Z,48.98
2023-05-24T13:03:13.335Z,49.34
2023-05-24T13:07:16.101Z,49.34
2023-05-24T13:11:20.145Z,48.55
2023-05-24T13:15:24.041Z,45.42
2023-05-24T13:19:26.792Z,46.03
2023-05-24T13:23:29.848Z,42.91
2023-05-24T13:27:33.967Z,43.47
2023-05-24T13:31:37.722Z,41.90
2023-05-24T13:35:42.058Z,41.06
2023-05-24T13:39:45.008Z,42.29
2023-05-24T13:43:50.618Z,41.69
2023-05-24T13:47:53.688Z,41.95
2023-05-24T13:51:58.512Z,43.05
2023-05-24T13:56:02.761Z,41.70
2023-05-24T14:00:09.306Z,42.08
2023-05-24T14:04:12.514Z,40.91
2023-05-24T14:08:15.206Z,40.03
2023-05-24T14:12:17.868Z,43.56
2023-05-24T14:16:22.028Z,41.13
2023-05-24T14:20:24.854Z,42.17
2023-05-24T14:24:27.661Z,40.32
2023-05-24T14:28:30.318Z,39.65
2023-05-24T14:32:34.327Z,40.60
2023-05-24T14:36:37.577Z,41.24
2023-05-24T14:40:40.867Z,43.16
2023-05-24T14:44:43.699Z,41.20
2023-05-24T14:48:47.774Z,42.61
2023-05-24T14:52:50.878Z,41.96
2023-05-24T14:56:54.333Z,42.18
2023-05-24T15:00:57.071Z,43.11
2023-05-24T15:05:01.179Z,43.19
2023-05-24T15:09:04.277Z,43.35
2023-05-24T15:13:07.156Z,43.35
2023-05-24T15:17:10.831Z,45.05
2023-05-24T15:21:14.808Z,41.84
2023-05-24T15:25:17.822Z,43.89
2023-05-24T15:29:21.531Z,44.47
2023-05-24T15:33:24.285Z,40.76
2023-05-24T15:37:28.567Z,43.61
2023-05-24T15:41:31.237Z,42.82
2023-05-24T15:45:33.895Z,42.49
2023-05-24T15:49:36.579Z,42.05
2023-05-24T15:53:40.777Z,43.83
2023-05-24T15:57:43.500Z,43.53
2023-05-24T16:01:46.135Z,41.56
2023-05-24T16:05:49.493Z,43.23
2023-05-24T16:09:54.125Z,41.64
2023-05-24T16:13:57.342Z,41.81
2023-05-24T16:17:59.988Z,41.57
2023-05-24T16:22:03.063Z,42.68
2023-05-24T16:26:07.155Z,40.16
2023-05-24T16:30:10.551Z,41.28
2023-05-24T16:34:13.201Z,39.86
2023-05-24T16:38:15.964Z,41.16
2023-05-24T16:42:19.954Z,40.43
2023-05-24T16:46:23.953Z,40.54
2023-05-24T16:50:27.066Z,39.73
2023-05-24T16:54:29.772Z,40.73
2023-05-24T16:58:33.797Z,40.20
2023-05-24T17:02:36.524Z,42.85
2023-05-24T17:06:39.293Z,41.31
2023-05-24T17:10:43.596Z,42.04
2023-05-24T17:14:47.771Z,41.61
2023-05-24T17:18:51.062Z,42.11
2023-05-24T17:22:55.705Z,43.00
2023-05-24T17:26:58.350Z,43.56
2023-05-24T17:31:04.202Z,45.17
2023-05-24T17:35:07.149Z,44.98
2023-05-24T17:39:09.892Z,45.13
2023-05-24T17:43:12.916Z,46.41
2023-05-24T17:47:16.941Z,45.83
2023-05-24T17:51:20.032Z,46.51
2023-05-24T17:55:23.102Z,49.61
2023-05-24T17:59:25.775Z,50.09
2023-05-24T18:03:29.747Z,50.80
2023-05-24T18:07:32.412Z,50.50
2023-05-24T18:11:35.175Z,50.50
2023-05-24T18:15:37.891Z,50.97
2023-05-24T18:19:42.006Z,51.15
2023-05-24T18:23:44.669Z,51.50
2023-05-24T18:27:47.650Z,52.22
2023-05-24T18:31:50.406Z,52.14
2023-05-24T18:35:54.501Z,52.79
2023-05-24T18:39:58.780Z,53.07
2023-05-24T18:44:01.411Z,52.19
2023-05-24T18:48:04.247Z,53.33
2023-05-24T18:52:08.307Z,52.92
2023-05-24T18:56:11.057Z,53.85
2023-05-24T19:00:14.605Z,54.37
2023-05-24T19:04:17.266Z,54.35
2023-05-24T19:08:21.460Z,53.67
2023-05-24T19:12:24.269Z,53.73
2023-05-24T19:16:26.957Z,53.71
2023-05-24T19:20:29.720Z,54.29
2023-05-24T19:24:34.004Z,54.68
2023-05-24T19:28:40.176Z,55.73
2023-05-24T19:32:43.145Z,54.87
2023-05-24T19:36:46.117Z,55.61
2023-05-24T19:40:50.199Z,54.98
2023-05-24T19:44:53.205Z,54.71
2023-05-24T19:48:56.098Z,56.44
2023-05-24T19:52:58.775Z,55.71
2023-05-24T19:57:03.100Z,56.10
2023-05-24T20:01:06.336Z,55.94
2023-05-24T20:05:10.013Z,56.42
2023-05-24T20:09:12.796Z,56.59
2023-05-24T20:13:16.810Z,57.22
2023-05-24T20:17:19.487Z,56.94
2023-05-24T20:21:22.161Z,56.75
2023-05-24T20:25:25.297Z,57.03
2023-05-24T20:29:29.322Z,57.31
2023-05-24T20:33:33.491Z,57.49
2023-05-24T20:37:36.298Z,57.11
2023-05-24T20:41:38.967Z,57.46
2023-05-24T20:45:43.296Z,57.58
2023-05-24T20:49:46.248Z,57.34
2023-05-24T20:53:51.686Z,57.42
2023-05-24T20:57:54.343Z,57.69
2023-05-24T21:01:58.322Z,58.53
2023-05-24T21:06:01.020Z,58.65
2023-05-24T21:10:04.006Z,58.70
2023-05-24T21:14:06.629Z,59.35
2023-05-24T21:18:10.635Z,59.67
2023-05-24T21:22:13.252Z,59.90
2023-05-24T21:26:15.923Z,60.37
2023-05-24T21:30:18.546Z,60.86
2023-05-24T21:34:22.484Z,61.19
2023-05-24T21:38:25.285Z,61.41
2023-05-24T21:42:27.956Z,61.68
2023-05-24T21:46:33.997Z,62.03
2023-05-24T21:50:37.950Z,62.57
2023-05-24T21:54:40.589Z,62.83
2023-05-24T21:58:43.276Z,63.62
2023-05-24T22:02:45.938Z,63.92
2023-05-24T22:06:50.043Z,63.70
2023-05-24T22:10:52.711Z,64.13
2023-05-24T22:14:55.472Z,64.23
2023-05-24T22:19:01.112Z,64.37
2023-05-24T22:23:05.406Z,64.76
2023-05-24T22:27:13.812Z,64.69
2023-05-24T22:31:16.693Z,64.55
2023-05-24T22:35:20.376Z,64.37
2023-05-24T22:39:24.516Z,64.81
2023-05-24T22:43:27.805Z,65.00
2023-05-24T22:47:33.433Z,64.97
2023-05-24T22:51:37.688Z,65.22
2023-05-24T22:55:41.700Z,66.03
2023-05-24T22:59:45.920Z,66.25
2023-05-24T23:03:48.528Z,66.54
2023-05-24T23:07:51.892Z,66.15
2023-05-24T23:11:58.098Z,66.36
2023-05-24T23:16:00.871Z,66.62
2023-05-24T23:20:03.968Z,66.90
2023-05-24T23:24:09.562Z,66.79
2023-05-24T23:28:13.544Z,67.12
2023-05-24T23:32:16.194Z,66.91
2023-05-24T23:36:18.860Z,67.35
2023-05-24T23:40:21.614Z,67.31
2023-05-24T23:44:25.912Z,67.31
2023-05-24T23:48:28.895Z,67.39
2023-05-24T23:52:31.511Z,67.65
2023-05-24T23:56:34.210Z,67.80
